sensor_id;sensor_type;location;lat;lon;timestamp;pressure;altitude;pressure_sealevel;temperature
60615;BMP280;46444;45.590;5.284;2022-12-20T00:01:17;99555.09;;;10.98
60615;BMP280;46444;45.590;5.284;2022-12-20T00:03:43;99558.63;;;10.99
60615;BMP280;46444;45.590;5.284;2022-12-20T00:06:10;99558.63;;;10.99
60615;BMP280;46444;45.590;5.284;2022-12-20T00:08:37;99555.31;;;10.97
60615;BMP280;46444;45.590;5.284;2022-12-20T00:11:04;99541.38;;;10.95
60615;BMP280;46444;45.590;5.284;2022-12-20T00:13:31;99544.03;;;10.95
60615;BMP280;46444;45.590;5.284;2022-12-20T00:16:14;99528.56;;;10.97
60615;BMP280;46444;45.590;5.284;2022-12-20T00:18:56;99533.13;;;10.96
60615;BMP280;46444;45.590;5.284;2022-12-20T00:21:27;99527.16;;;10.94
60615;BMP280;46444;45.590;5.284;2022-12-20T00:24:25;99529.72;;;10.89
60615;BMP280;46444;45.590;5.284;2022-12-20T00:27:19;99536.91;;;10.89
60615;BMP280;46444;45.590;5.284;2022-12-20T00:29:44;99551.53;;;10.86
60615;BMP280;46444;45.590;5.284;2022-12-20T00:32:09;99548.19;;;10.91
60615;BMP280;46444;45.590;5.284;2022-12-20T00:34:35;99547.59;;;10.89
60615;BMP280;46444;45.590;5.284;2022-12-20T00:37:01;99540.63;;;10.88
60615;BMP280;46444;45.590;5.284;2022-12-20T00:39:27;99547.59;;;10.89
60615;BMP280;46444;45.590;5.284;2022-12-20T00:41:52;99550.84;;;10.91
60615;BMP280;46444;45.590;5.284;2022-12-20T00:44:17;99557.25;;;10.90
60615;BMP280;46444;45.590;5.284;2022-12-20T00:46:43;99543.88;;;10.90
60615;BMP280;46444;45.590;5.284;2022-12-20T00:49:08;99545.50;;;10.91
60615;BMP280;46444;45.590;5.284;2022-12-20T00:51:33;99551.31;;;10.88
60615;BMP280;46444;45.590;5.284;2022-12-20T00:53:59;99538.09;;;10.93
60615;BMP280;46444;45.590;5.284;2022-12-20T00:56:24;99542.63;;;10.92
60615;BMP280;46444;45.590;5.284;2022-12-20T00:58:50;99535.44;;;10.93
60615;BMP280;46444;45.590;5.284;2022-12-20T01:01:22;99545.88;;;10.94
60615;BMP280;46444;45.590;5.284;2022-12-20T01:03:49;99549.22;;;10.90
60615;BMP280;46444;45.590;5.284;2022-12-20T01:06:16;99556.44;;;10.89
60615;BMP280;46444;45.590;5.284;2022-12-20T01:08:41;99550.06;;;10.90
60615;BMP280;46444;45.590;5.284;2022-12-20T01:11:09;99555.03;;;10.87
60615;BMP280;46444;45.590;5.284;2022-12-20T01:13:39;99546.13;;;10.93
60615;BMP280;46444;45.590;5.284;2022-12-20T01:18:30;99541.38;;;10.95
60615;BMP280;46444;45.590;5.284;2022-12-20T01:21:04;99536.59;;;10.97
60615;BMP280;46444;45.590;5.284;2022-12-20T01:23:30;99544.19;;;11.00
60615;BMP280;46444;45.590;5.284;2022-12-20T01:26:00;99535.97;;;11.01
60615;BMP280;46444;45.590;5.284;2022-12-20T01:28:27;99526.06;;;11.02
60615;BMP280;46444;45.590;5.284;2022-12-20T01:30:53;99526.28;;;11.00
60615;BMP280;46444;45.590;5.284;2022-12-20T01:33:18;99528.75;;;11.02
60615;BMP280;46444;45.590;5.284;2022-12-20T01:36:01;99522.34;;;11.03
60615;BMP280;46444;45.590;5.284;2022-12-20T01:38:28;99530.97;;;11.05
60615;BMP280;46444;45.590;5.284;2022-12-20T01:40:54;99523.53;;;11.07
60615;BMP280;46444;45.590;5.284;2022-12-20T01:43:21;99522.50;;;11.08
60615;BMP280;46444;45.590;5.284;2022-12-20T01:45:47;99520.19;;;11.11
60615;BMP280;46444;45.590;5.284;2022-12-20T01:48:15;99511.38;;;11.11
60615;BMP280;46444;45.590;5.284;2022-12-20T01:50:44;99508.25;;;11.14
60615;BMP280;46444;45.590;5.284;2022-12-20T01:53:10;99509.88;;;11.15
60615;BMP280;46444;45.590;5.284;2022-12-20T01:55:35;99515.59;;;11.18
60615;BMP280;46444;45.590;5.284;2022-12-20T01:58:05;99503.88;;;11.19
60615;BMP280;46444;45.590;5.284;2022-12-20T02:00:32;99513.31;;;11.22
60615;BMP280;46444;45.590;5.284;2022-12-20T02:02:59;99499.47;;;11.25
60615;BMP280;46444;45.590;5.284;2022-12-20T02:05:26;99497.63;;;11.25
60615;BMP280;46444;45.590;5.284;2022-12-20T02:07:53;99489.97;;;11.29
60615;BMP280;46444;45.590;5.284;2022-12-20T02:10:23;99489.97;;;11.29
60615;BMP280;46444;45.590;5.284;2022-12-20T02:12:58;99478.81;;;11.32
60615;BMP280;46444;45.590;5.284;2022-12-20T02:15:50;99485.78;;;11.33
60615;BMP280;46444;45.590;5.284;2022-12-20T02:21:42;99478.81;;;11.32
60615;BMP280;46444;45.590;5.284;2022-12-20T02:27:27;99470.34;;;11.35
60615;BMP280;46444;45.590;5.284;2022-12-20T02:32:41;99489.66;;;11.37
60615;BMP280;46444;45.590;5.284;2022-12-20T02:35:11;99470.09;;;11.36
60615;BMP280;46444;45.590;5.284;2022-12-20T02:37:47;99467.66;;;11.35
60615;BMP280;46444;45.590;5.284;2022-12-20T02:40:14;99473.00;;;11.35
60615;BMP280;46444;45.590;5.284;2022-12-20T02:42:41;99475.09;;;11.33
60615;BMP280;46444;45.590;5.284;2022-12-20T02:45:08;99468.56;;;11.29
60615;BMP280;46444;45.590;5.284;2022-12-20T02:50:13;99463.44;;;11.27
60615;BMP280;46444;45.590;5.284;2022-12-20T02:52:39;99472.28;;;11.28
60615;BMP280;46444;45.590;5.284;2022-12-20T02:55:05;99473.31;;;11.27
60615;BMP280;46444;45.590;5.284;2022-12-20T03:00:12;99474.34;;;11.26
60615;BMP280;46444;45.590;5.284;2022-12-20T03:02:40;99480.91;;;11.30
60615;BMP280;46444;45.590;5.284;2022-12-20T03:05:25;99470.19;;;11.30
60615;BMP280;46444;45.590;5.284;2022-12-20T03:07:51;99478.81;;;11.32
60615;BMP280;46444;45.590;5.284;2022-12-20T03:10:18;99483.94;;;11.33
60615;BMP280;46444;45.590;5.284;2022-12-20T03:12:44;99473.44;;;11.32
60615;BMP280;46444;45.590;5.284;2022-12-20T03:15:12;99465.78;;;11.35
60615;BMP280;46444;45.590;5.284;2022-12-20T03:17:37;99463.72;;;11.37
60615;BMP280;46444;45.590;5.284;2022-12-20T03:20:04;99457.19;;;11.33
60615;BMP280;46444;45.590;5.284;2022-12-20T03:22:32;99462.31;;;11.35
60615;BMP280;46444;45.590;5.284;2022-12-20T03:24:59;99462.16;;;11.30
60615;BMP280;46444;45.590;5.284;2022-12-20T03:27:24;99456.97;;;11.35
60615;BMP280;46444;45.590;5.284;2022-12-20T03:29:52;99455.41;;;11.27
60615;BMP280;46444;45.590;5.284;2022-12-20T03:32:20;99458.91;;;11.28
60615;BMP280;46444;45.590;5.284;2022-12-20T03:34:45;99452.50;;;11.29
60615;BMP280;46444;45.590;5.284;2022-12-20T03:37:11;99443.66;;;11.28
60615;BMP280;46444;45.590;5.284;2022-12-20T03:39:36;99432.72;;;11.30
60615;BMP280;46444;45.590;5.284;2022-12-20T03:42:02;99432.50;;;11.31
60615;BMP280;46444;45.590;5.284;2022-12-20T03:44:29;99426.91;;;11.33
60615;BMP280;46444;45.590;5.284;2022-12-20T03:47:00;99425.66;;;11.35
60615;BMP280;46444;45.590;5.284;2022-12-20T03:49:32;99429.16;;;11.36
60615;BMP280;46444;45.590;5.284;2022-12-20T03:52:31;99437.75;;;11.38
60615;BMP280;46444;45.590;5.284;2022-12-20T03:54:57;99441.28;;;11.38
60615;BMP280;46444;45.590;5.284;2022-12-20T03:57:32;99445.56;;;11.39
60615;BMP280;46444;45.590;5.284;2022-12-20T04:00:12;99434.88;;;11.39
60615;BMP280;46444;45.590;5.284;2022-12-20T04:03:01;99421.50;;;11.39
60615;BMP280;46444;45.590;5.284;2022-12-20T04:05:48;99437.91;;;11.43
60615;BMP280;46444;45.590;5.284;2022-12-20T04:08:21;99444.75;;;11.39
60615;BMP280;46444;45.590;5.284;2022-12-20T04:11:04;99450.72;;;11.41
60615;BMP280;46444;45.590;5.284;2022-12-20T04:14:01;99453.38;;;11.41
60615;BMP280;46444;45.590;5.284;2022-12-20T04:17:08;99451.06;;;11.44
60615;BMP280;46444;45.590;5.284;2022-12-20T04:19:45;99457.00;;;11.46
60615;BMP280;46444;45.590;5.284;2022-12-20T04:22:11;99460.94;;;11.44
60615;BMP280;46444;45.590;5.284;2022-12-20T04:24:37;99458.41;;;11.49
60615;BMP280;46444;45.590;5.284;2022-12-20T04:27:04;99453.63;;;11.51
60615;BMP280;46444;45.590;5.284;2022-12-20T04:29:31;99453.63;;;11.51
60615;BMP280;46444;45.590;5.284;2022-12-20T04:31:57;99461.66;;;11.51
60615;BMP280;46444;45.590;5.284;2022-12-20T04:34:22;99447.28;;;11.52
60615;BMP280;46444;45.590;5.284;2022-12-20T04:36:48;99439.81;;;11.54
60615;BMP280;46444;45.590;5.284;2022-12-20T04:39:13;99442.50;;;11.54
60615;BMP280;46444;45.590;5.284;2022-12-20T04:41:38;99436.09;;;11.55
60615;BMP280;46444;45.590;5.284;2022-12-20T04:44:04;99435.44;;;11.59
60615;BMP280;46444;45.590;5.284;2022-12-20T04:46:29;99436.84;;;11.62
60615;BMP280;46444;45.590;5.284;2022-12-20T04:48:54;99440.13;;;11.64
60615;BMP280;46444;45.590;5.284;2022-12-20T04:51:20;99451.63;;;11.64
60615;BMP280;46444;45.590;5.284;2022-12-20T04:53:45;99449.56;;;11.66
60615;BMP280;46444;45.590;5.284;2022-12-20T04:56:13;99461.06;;;11.67
60615;BMP280;46444;45.590;5.284;2022-12-20T04:58:38;99460.16;;;11.73
60615;BMP280;46444;45.590;5.284;2022-12-20T05:01:04;99451.69;;;11.76
60615;BMP280;46444;45.590;5.284;2022-12-20T05:03:29;99450.66;;;11.77
60615;BMP280;46444;45.590;5.284;2022-12-20T05:05:54;99456.22;;;11.75
60615;BMP280;46444;45.590;5.284;2022-12-20T05:08:20;99452.28;;;11.78
60615;BMP280;46444;45.590;5.284;2022-12-20T05:10:46;99448.56;;;11.79
60615;BMP280;46444;45.590;5.284;2022-12-20T05:13:12;99450.19;;;11.80
60615;BMP280;46444;45.590;5.284;2022-12-20T05:15:37;99441.09;;;11.81
60615;BMP280;46444;45.590;5.284;2022-12-20T05:18:03;99433.66;;;11.83
60615;BMP280;46444;45.590;5.284;2022-12-20T05:20:30;99422.97;;;11.83
60615;BMP280;46444;45.590;5.284;2022-12-20T05:22:56;99420.28;;;11.83
60615;BMP280;46444;45.590;5.284;2022-12-20T05:25:45;99419.81;;;11.86
60615;BMP280;46444;45.590;5.284;2022-12-20T05:28:34;99425.78;;;11.88
60615;BMP280;46444;45.590;5.284;2022-12-20T05:31:00;99410.50;;;11.88
60615;BMP280;46444;45.590;5.284;2022-12-20T05:33:26;99406.41;;;11.86
60615;BMP280;46444;45.590;5.284;2022-12-20T05:35:52;99401.66;;;11.88
60615;BMP280;46444;45.590;5.284;2022-12-20T05:38:17;99405.75;;;11.90
60615;BMP280;46444;45.590;5.284;2022-12-20T05:40:46;99392.09;;;11.92
60615;BMP280;46444;45.590;5.284;2022-12-20T05:43:12;99398.50;;;11.91
60615;BMP280;46444;45.590;5.284;2022-12-20T05:45:37;99391.88;;;11.93
60615;BMP280;46444;45.590;5.284;2022-12-20T05:48:03;99396.78;;;11.96
60615;BMP280;46444;45.590;5.284;2022-12-20T05:50:28;99395.97;;;11.96
60615;BMP280;46444;45.590;5.284;2022-12-20T05:52:53;99384.31;;;12.02
60615;BMP280;46444;45.590;5.284;2022-12-20T05:55:19;99383.63;;;12.06
60615;BMP280;46444;45.590;5.284;2022-12-20T05:57:44;99383.41;;;12.08
60615;BMP280;46444;45.590;5.284;2022-12-20T06:00:10;99383.75;;;12.11
60615;BMP280;46444;45.590;5.284;2022-12-20T06:02:37;99359.19;;;12.14
60615;BMP280;46444;45.590;5.284;2022-12-20T06:05:02;99355.69;;;12.14
60615;BMP280;46444;45.590;5.284;2022-12-20T06:07:28;99350.66;;;12.17
60615;BMP280;46444;45.590;5.284;2022-12-20T06:09:54;99364.63;;;12.19
60615;BMP280;46444;45.590;5.284;2022-12-20T06:12:20;99360.09;;;12.20
60615;BMP280;46444;45.590;5.284;2022-12-20T06:14:45;99348.69;;;12.24
60615;BMP280;46444;45.590;5.284;2022-12-20T06:17:10;99359.19;;;12.26
60615;BMP280;46444;45.590;5.284;2022-12-20T06:19:36;99360.00;;;12.26
60615;BMP280;46444;45.590;5.284;2022-12-20T06:22:01;99359.31;;;12.31
60615;BMP280;46444;45.590;5.284;2022-12-20T06:24:27;99364.66;;;12.31
60615;BMP280;46444;45.590;5.284;2022-12-20T06:26:53;99364.16;;;12.34
60615;BMP280;46444;45.590;5.284;2022-12-20T06:29:18;99372.22;;;12.34
60615;BMP280;46444;45.590;5.284;2022-12-20T06:31:45;99375.84;;;12.39
60615;BMP280;46444;45.590;5.284;2022-12-20T06:34:12;99380.97;;;12.41
60615;BMP280;46444;45.590;5.284;2022-12-20T06:36:38;99381.19;;;12.51
60615;BMP280;46444;45.590;5.284;2022-12-20T06:39:03;99394.59;;;12.51
60615;BMP280;46444;45.590;5.284;2022-12-20T06:41:28;99409.88;;;12.50
60615;BMP280;46444;45.590;5.284;2022-12-20T06:43:54;99393.66;;;12.57
60615;BMP280;46444;45.590;5.284;2022-12-20T06:46:19;99386.56;;;12.62
60615;BMP280;46444;45.590;5.284;2022-12-20T06:48:44;99398.06;;;12.63
60615;BMP280;46444;45.590;5.284;2022-12-20T06:51:10;99408.81;;;12.63
60615;BMP280;46444;45.590;5.284;2022-12-20T06:53:35;99410.91;;;12.61
60615;BMP280;46444;45.590;5.284;2022-12-20T06:56:00;99402.03;;;12.72
60615;BMP280;46444;45.590;5.284;2022-12-20T06:58:26;99399.25;;;12.67
60615;BMP280;46444;45.590;5.284;2022-12-20T07:00:51;99407.53;;;12.77
60615;BMP280;46444;45.590;5.284;2022-12-20T07:03:17;99401.78;;;12.73
60615;BMP280;46444;45.590;5.284;2022-12-20T07:05:42;99399.94;;;12.74
60615;BMP280;46444;45.590;5.284;2022-12-20T07:08:08;99380.59;;;12.72
60615;BMP280;46444;45.590;5.284;2022-12-20T07:10:34;99385.47;;;12.75
60615;BMP280;46444;45.590;5.284;2022-12-20T07:13:00;99378.47;;;12.74
60615;BMP280;46444;45.590;5.284;2022-12-20T07:15:25;99381.72;;;12.76
60615;BMP280;46444;45.590;5.284;2022-12-20T07:17:51;99371.00;;;12.76
60615;BMP280;46444;45.590;5.284;2022-12-20T07:20:16;99372.41;;;12.78
60615;BMP280;46444;45.590;5.284;2022-12-20T07:22:42;99371.72;;;12.83
60615;BMP280;46444;45.590;5.284;2022-12-20T07:25:08;99361.44;;;12.80
60615;BMP280;46444;45.590;5.284;2022-12-20T07:27:33;99355.63;;;12.83
60615;BMP280;46444;45.590;5.284;2022-12-20T07:29:59;99350.25;;;12.83
60615;BMP280;46444;45.590;5.284;2022-12-20T07:32:24;99361.31;;;12.86
60615;BMP280;46444;45.590;5.284;2022-12-20T07:34:50;99362.13;;;12.87
60615;BMP280;46444;45.590;5.284;2022-12-20T07:37:15;99355.81;;;12.93
60615;BMP280;46444;45.590;5.284;2022-12-20T07:39:40;99346.25;;;12.97
60615;BMP280;46444;45.590;5.284;2022-12-20T07:42:06;99342.16;;;12.94
60615;BMP280;46444;45.590;5.284;2022-12-20T07:44:32;99338.31;;;12.90
60615;BMP280;46444;45.590;5.284;2022-12-20T07:46:57;99349.38;;;12.94
60615;BMP280;46444;45.590;5.284;2022-12-20T07:49:22;99343.00;;;12.95
60615;BMP280;46444;45.590;5.284;2022-12-20T07:51:50;99338.00;;;12.98
60615;BMP280;46444;45.590;5.284;2022-12-20T07:54:30;99338.88;;;13.04
60615;BMP280;46444;45.590;5.284;2022-12-20T07:57:00;99346.94;;;13.04
60615;BMP280;46444;45.590;5.284;2022-12-20T07:59:34;99350.69;;;13.03
60615;BMP280;46444;45.590;5.284;2022-12-20T08:02:00;99336.69;;;13.01
60615;BMP280;46444;45.590;5.284;2022-12-20T08:04:27;99343.78;;;13.07
60615;BMP280;46444;45.590;5.284;2022-12-20T08:06:54;99344.81;;;13.06
60615;BMP280;46444;45.590;5.284;2022-12-20T08:09:21;99361.63;;;13.13
60615;BMP280;46444;45.590;5.284;2022-12-20T08:11:49;99360.22;;;13.10
60615;BMP280;46444;45.590;5.284;2022-12-20T08:14:16;99365.81;;;13.09
60615;BMP280;46444;45.590;5.284;2022-12-20T08:16:42;99354.53;;;13.07
60615;BMP280;46444;45.590;5.284;2022-12-20T08:19:08;99360.91;;;13.06
60615;BMP280;46444;45.590;5.284;2022-12-20T08:21:34;99358.22;;;13.06
60615;BMP280;46444;45.590;5.284;2022-12-20T08:23:59;99352.63;;;13.07
60615;BMP280;46444;45.590;5.284;2022-12-20T08:26:25;99342.50;;;13.09
60615;BMP280;46444;45.590;5.284;2022-12-20T08:28:50;99342.72;;;13.08
60615;BMP280;46444;45.590;5.284;2022-12-20T08:31:16;99333.84;;;13.07
60615;BMP280;46444;45.590;5.284;2022-12-20T08:33:41;99344.59;;;13.07
60615;BMP280;46444;45.590;5.284;2022-12-20T08:36:11;99316.97;;;13.07
60615;BMP280;46444;45.590;5.284;2022-12-20T08:38:37;99306.78;;;13.09
60615;BMP280;46444;45.590;5.284;2022-12-20T08:41:03;99296.88;;;13.09
60615;BMP280;46444;45.590;5.284;2022-12-20T08:43:30;99295.56;;;13.12
60615;BMP280;46444;45.590;5.284;2022-12-20T08:45:56;99288.09;;;13.14
60615;BMP280;46444;45.590;5.284;2022-12-20T08:48:21;99305.84;;;13.15
60615;BMP280;46444;45.590;5.284;2022-12-20T08:50:49;99296.72;;;13.16
60615;BMP280;46444;45.590;5.284;2022-12-20T08:53:17;99309.09;;;13.17
60615;BMP280;46444;45.590;5.284;2022-12-20T08:55:43;99317.47;;;13.20
60615;BMP280;46444;45.590;5.284;2022-12-20T08:58:08;99311.28;;;13.20
60615;BMP280;46444;45.590;5.284;2022-12-20T09:00:35;99287.94;;;13.20
60615;BMP280;46444;45.590;5.284;2022-12-20T09:03:00;99301.34;;;13.20
60615;BMP280;46444;45.590;5.284;2022-12-20T09:05:25;99315.59;;;13.21
60615;BMP280;46444;45.590;5.284;2022-12-20T09:07:51;99323.66;;;13.21
60615;BMP280;46444;45.590;5.284;2022-12-20T09:10:16;99323.88;;;13.19
60615;BMP280;46444;45.590;5.284;2022-12-20T09:12:41;99320.47;;;13.24
60615;BMP280;46444;45.590;5.284;2022-12-20T09:15:07;99323.75;;;13.26
60615;BMP280;46444;45.590;5.284;2022-12-20T09:17:33;99339.97;;;13.31
60615;BMP280;46444;45.590;5.284;2022-12-20T09:19:58;99338.06;;;13.31
60615;BMP280;46444;45.590;5.284;2022-12-20T09:22:23;99345.88;;;13.33
60615;BMP280;46444;45.590;5.284;2022-12-20T09:24:55;99335.38;;;13.31
60615;BMP280;46444;45.590;5.284;2022-12-20T09:27:24;99324.66;;;13.31
60615;BMP280;46444;45.590;5.284;2022-12-20T09:29:52;99319.03;;;13.33
60615;BMP280;46444;45.590;5.284;2022-12-20T09:32:17;99315.88;;;13.36
60615;BMP280;46444;45.590;5.284;2022-12-20T09:34:43;99316.47;;;13.38
60615;BMP280;46444;45.590;5.284;2022-12-20T09:37:08;99324.28;;;13.39
60615;BMP280;46444;45.590;5.284;2022-12-20T09:39:33;99318.09;;;13.39
60615;BMP280;46444;45.590;5.284;2022-12-20T09:41:59;99317.59;;;13.42
60615;BMP280;46444;45.590;5.284;2022-12-20T09:44:28;99306.06;;;13.41
60615;BMP280;46444;45.590;5.284;2022-12-20T09:46:58;99315.00;;;13.47
60615;BMP280;46444;45.590;5.284;2022-12-20T09:49:28;99299.22;;;13.50
60615;BMP280;46444;45.590;5.284;2022-12-20T10:00:12;99264.47;;;13.60
60615;BMP280;46444;45.590;5.284;2022-12-20T10:02:38;99256.75;;;13.64
60615;BMP280;46444;45.590;5.284;2022-12-20T10:05:03;99265.94;;;13.68
60615;BMP280;46444;45.590;5.284;2022-12-20T10:07:52;99263.59;;;13.71
60615;BMP280;46444;45.590;5.284;2022-12-20T10:16:14;99253.16;;;13.75
60615;BMP280;46444;45.590;5.284;2022-12-20T10:18:55;99236.06;;;13.81
60615;BMP280;46444;45.590;5.284;2022-12-20T10:24:23;99245.75;;;13.82
60615;BMP280;46444;45.590;5.284;2022-12-20T10:26:50;99257.31;;;13.82
60615;BMP280;46444;45.590;5.284;2022-12-20T10:29:17;99242.97;;;13.77
60615;BMP280;46444;45.590;5.284;2022-12-20T10:31:42;99219.78;;;13.87
60615;BMP280;46444;45.590;5.284;2022-12-20T10:34:09;99233.69;;;13.84
60615;BMP280;46444;45.590;5.284;2022-12-20T10:36:35;99218.31;;;13.80
60615;BMP280;46444;45.590;5.284;2022-12-20T10:39:05;99218.63;;;13.83
60615;BMP280;46444;45.590;5.284;2022-12-20T10:41:54;99232.06;;;13.83
60615;BMP280;46444;45.590;5.284;2022-12-20T10:44:28;99215.19;;;13.88
60615;BMP280;46444;45.590;5.284;2022-12-20T10:46:59;99200.72;;;13.89
60615;BMP280;46444;45.590;5.284;2022-12-20T10:49:37;99199.91;;;13.88
60615;BMP280;46444;45.590;5.284;2022-12-20T10:54:34;99230.25;;;13.89
60615;BMP280;46444;45.590;5.284;2022-12-20T10:57:03;99224.16;;;13.93
60615;BMP280;46444;45.590;5.284;2022-12-20T10:59:38;99209.97;;;13.98
60615;BMP280;46444;45.590;5.284;2022-12-20T11:02:26;99216.16;;;13.98
60615;BMP280;46444;45.590;5.284;2022-12-20T11:05:02;99201.16;;;14.02
60615;BMP280;46444;45.590;5.284;2022-12-20T11:07:32;99212.16;;;14.01
60615;BMP280;46444;45.590;5.284;2022-12-20T11:10:01;99216.50;;;14.02
60615;BMP280;46444;45.590;5.284;2022-12-20T11:12:26;99225.09;;;14.04
60615;BMP280;46444;45.590;5.284;2022-12-20T11:15:10;99242.84;;;14.05
60615;BMP280;46444;45.590;5.284;2022-12-20T11:17:50;99237.72;;;14.03
60615;BMP280;46444;45.590;5.284;2022-12-20T11:32:21;99213.38;;;14.10
60615;BMP280;46444;45.590;5.284;2022-12-20T11:34:41;99218.75;;;14.10
60615;BMP280;46444;45.590;5.284;2022-12-20T11:37:25;99201.00;;;14.09
60615;BMP280;46444;45.590;5.284;2022-12-20T11:45:27;99192.34;;;14.07
60615;BMP280;46444;45.590;5.284;2022-12-20T11:53:38;99193.66;;;14.04
60615;BMP280;46444;45.590;5.284;2022-12-20T11:56:33;99179.97;;;14.06
60615;BMP280;46444;45.590;5.284;2022-12-20T12:01:59;99179.97;;;14.06
60615;BMP280;46444;45.590;5.284;2022-12-20T12:04:31;99190.50;;;14.07
60615;BMP280;46444;45.590;5.284;2022-12-20T12:07:02;99181.59;;;14.07
60615;BMP280;46444;45.590;5.284;2022-12-20T12:09:35;99178.13;;;14.06
60615;BMP280;46444;45.590;5.284;2022-12-20T12:12:16;99169.22;;;14.06
60615;BMP280;46444;45.590;5.284;2022-12-20T12:14:58;99174.59;;;14.06
60615;BMP280;46444;45.590;5.284;2022-12-20T12:17:32;99166.78;;;14.04
60615;BMP280;46444;45.590;5.284;2022-12-20T12:20:30;99161.69;;;14.03
60615;BMP280;46444;45.590;5.284;2022-12-20T12:22:53;99157.94;;;14.04
60615;BMP280;46444;45.590;5.284;2022-12-20T12:25:20;99154.41;;;14.03
60615;BMP280;46444;45.590;5.284;2022-12-20T12:27:45;99144.50;;;14.04
60615;BMP280;46444;45.590;5.284;2022-12-20T12:30:13;99143.66;;;14.03
60615;BMP280;46444;45.590;5.284;2022-12-20T12:32:54;99144.50;;;14.04
60615;BMP280;46444;45.590;5.284;2022-12-20T12:35:42;99146.63;;;14.02
60615;BMP280;46444;45.590;5.284;2022-12-20T12:46:23;99120.25;;;13.99
60615;BMP280;46444;45.590;5.284;2022-12-20T12:49:03;99135.31;;;14.00
60615;BMP280;46444;45.590;5.284;2022-12-20T12:51:34;99131.31;;;14.02
60615;BMP280;46444;45.590;5.284;2022-12-20T12:54:17;99126.47;;;14.04
60615;BMP280;46444;45.590;5.284;2022-12-20T12:56:45;99115.47;;;14.06
60615;BMP280;46444;45.590;5.284;2022-12-20T13:02:18;99091.81;;;14.03
60615;BMP280;46444;45.590;5.284;2022-12-20T13:09:56;99093.19;;;14.05
60615;BMP280;46444;45.590;5.284;2022-12-20T13:17:59;99082.44;;;14.05
60615;BMP280;46444;45.590;5.284;2022-12-20T13:20:29;99089.13;;;14.03
60615;BMP280;46444;45.590;5.284;2022-12-20T13:23:21;99098.00;;;14.03
60615;BMP280;46444;45.590;5.284;2022-12-20T13:25:48;99093.69;;;14.02
60615;BMP280;46444;45.590;5.284;2022-12-20T13:30:46;99092.38;;;14.05
60615;BMP280;46444;45.590;5.284;2022-12-20T13:35:53;99085.13;;;14.05
60615;BMP280;46444;45.590;5.284;2022-12-20T13:49:42;99062.88;;;14.10
60615;BMP280;46444;45.590;5.284;2022-12-20T13:52:15;99069.88;;;14.11
60615;BMP280;46444;45.590;5.284;2022-12-20T13:54:47;99068.25;;;14.10
60615;BMP280;46444;45.590;5.284;2022-12-20T13:57:15;99059.94;;;14.11
60615;BMP280;46444;45.590;5.284;2022-12-20T13:59:45;99066.38;;;14.10
60615;BMP280;46444;45.590;5.284;2022-12-20T14:02:18;99069.88;;;14.11
60615;BMP280;46444;45.590;5.284;2022-12-20T14:04:52;99075.78;;;14.13
60615;BMP280;46444;45.590;5.284;2022-12-20T14:07:20;99063.94;;;14.09
60615;BMP280;46444;45.590;5.284;2022-12-20T14:09:46;99056.44;;;14.11
60615;BMP280;46444;45.590;5.284;2022-12-20T14:12:15;99073.09;;;14.13
60615;BMP280;46444;45.590;5.284;2022-12-20T14:14:46;99065.63;;;14.15
60615;BMP280;46444;45.590;5.284;2022-12-20T14:19:40;99064.25;;;14.12
60615;BMP280;46444;45.590;5.284;2022-12-20T14:22:09;99060.25;;;14.15
60615;BMP280;46444;45.590;5.284;2022-12-20T14:24:40;99065.03;;;14.13
60615;BMP280;46444;45.590;5.284;2022-12-20T14:27:10;99061.31;;;14.14
60615;BMP280;46444;45.590;5.284;2022-12-20T14:29:38;99061.31;;;14.14
60615;BMP280;46444;45.590;5.284;2022-12-20T14:32:04;99047.88;;;14.14
60615;BMP280;46444;45.590;5.284;2022-12-20T14:34:31;99056.97;;;14.13
60615;BMP280;46444;45.590;5.284;2022-12-20T14:37:30;99046.22;;;14.13
60615;BMP280;46444;45.590;5.284;2022-12-20T14:40:23;99053.75;;;14.11
60615;BMP280;46444;45.590;5.284;2022-12-20T14:42:47;99036.81;;;14.10
60615;BMP280;46444;45.590;5.284;2022-12-20T14:50:34;99053.75;;;14.11
60615;BMP280;46444;45.590;5.284;2022-12-20T14:53:01;99054.88;;;14.15
60615;BMP280;46444;45.590;5.284;2022-12-20T14:55:32;99046.22;;;14.13
60615;BMP280;46444;45.590;5.284;2022-12-20T14:57:59;99049.97;;;14.12
60615;BMP280;46444;45.590;5.284;2022-12-20T15:00:30;99038.16;;;14.13
60615;BMP280;46444;45.590;5.284;2022-12-20T15:13:16;99031.69;;;14.09
60615;BMP280;46444;45.590;5.284;2022-12-20T15:15:42;99033.31;;;14.10
60615;BMP280;46444;45.590;5.284;2022-12-20T15:18:12;99022.56;;;14.10
60615;BMP280;46444;45.590;5.284;2022-12-20T15:20:38;99016.06;;;14.06
60615;BMP280;46444;45.590;5.284;2022-12-20T15:23:04;99009.91;;;14.05
60615;BMP280;46444;45.590;5.284;2022-12-20T15:25:33;99022.25;;;14.06
60615;BMP280;46444;45.590;5.284;2022-12-20T15:28:00;99014.44;;;14.05
60615;BMP280;46444;45.590;5.284;2022-12-20T15:30:26;99015.50;;;14.04
60615;BMP280;46444;45.590;5.284;2022-12-20T15:32:51;99022.75;;;14.03
60615;BMP280;46444;45.590;5.284;2022-12-20T15:35:16;99019.00;;;14.04
60615;BMP280;46444;45.590;5.284;2022-12-20T15:37:42;99022.69;;;13.98
60615;BMP280;46444;45.590;5.284;2022-12-20T15:40:12;99023.03;;;14.02
60615;BMP280;46444;45.590;5.284;2022-12-20T15:42:40;99017.06;;;14.00
60615;BMP280;46444;45.590;5.284;2022-12-20T15:45:14;99014.97;;;14.02
60615;BMP280;46444;45.590;5.284;2022-12-20T15:47:40;99007.41;;;13.99
60615;BMP280;46444;45.590;5.284;2022-12-20T15:50:08;99011.94;;;13.98
60615;BMP280;46444;45.590;5.284;2022-12-20T15:52:34;98999.34;;;13.99
60615;BMP280;46444;45.590;5.284;2022-12-20T15:55:00;99006.03;;;13.96
60615;BMP280;46444;45.590;5.284;2022-12-20T15:57:25;99008.41;;;13.93
60615;BMP280;46444;45.590;5.284;2022-12-20T15:59:52;99007.91;;;13.96
60615;BMP280;46444;45.590;5.284;2022-12-20T16:04:45;99004.66;;;13.94
60615;BMP280;46444;45.590;5.284;2022-12-20T16:07:11;99021.59;;;13.94
60615;BMP280;46444;45.590;5.284;2022-12-20T16:09:37;99022.09;;;13.91
60615;BMP280;46444;45.590;5.284;2022-12-20T16:12:03;99003.81;;;13.88
60615;BMP280;46444;45.590;5.284;2022-12-20T16:14:29;99019.09;;;13.88
60615;BMP280;46444;45.590;5.284;2022-12-20T16:16:55;99017.72;;;13.85
60615;BMP280;46444;45.590;5.284;2022-12-20T16:19:20;99014.78;;;13.87
60615;BMP280;46444;45.590;5.284;2022-12-20T16:21:48;99004.03;;;13.87